createdAt,value
2019-01-05T00:00:44.115Z,78.00
2019-01-05T00:03:17.178Z,78.00
2019-01-05T00:05:56.136Z,78.70
2019-01-05T00:08:26.226Z,78.00
2019-01-05T00:11:05.362Z,78.00
2019-01-05T00:13:44.228Z,78.00
2019-01-05T00:16:17.521Z,77.80
2019-01-05T00:18:50.905Z,77.80
2019-01-05T00:21:37.059Z,77.80
2019-01-05T00:24:19.104Z,77.80
2019-01-05T00:27:05.721Z,77.50
2019-01-05T00:29:52.417Z,77.50
2019-01-05T00:32:39.790Z,77.50
2019-01-05T00:35:30.834Z,77.50
2019-01-05T00:38:09.802Z,77.50
2019-01-05T00:40:58.888Z,77.50
2019-01-05T00:43:45.244Z,77.50
2019-01-05T00:46:22.058Z,77.40
2019-01-05T00:49:11.799Z,77.50
2019-01-05T00:52:01.598Z,77.40
2019-01-05T00:54:46.673Z,77.20
2019-01-05T00:57:32.795Z,77.20
2019-01-05T01:00:04.131Z,77.30
2019-01-05T01:02:34.775Z,77.30
2019-01-05T01:05:11.027Z,77.30
2019-01-05T01:07:41.279Z,77.30
2019-01-05T01:10:26.161Z,77.00
2019-01-05T01:12:59.145Z,77.40
2019-01-05T01:15:35.972Z,77.00
2019-01-05T01:18:19.038Z,77.10
2019-01-05T01:20:49.425Z,77.10
2019-01-05T01:23:22.994Z,77.10
2019-01-05T01:26:10.163Z,77.20
2019-01-05T01:28:40.721Z,78.00
2019-01-05T01:31:11.440Z,77.70
2019-01-05T01:33:57.889Z,77.80
2019-01-05T01:36:40.059Z,78.00
2019-01-05T01:39:10.164Z,78.50
2019-01-05T01:41:40.845Z,78.70
2019-01-05T01:44:27.268Z,78.80
2019-01-05T01:47:14.302Z,78.90
2019-01-05T01:49:48.782Z,79.00
2019-01-05T01:52:21.788Z,79.10
2019-01-05T01:55:03.876Z,79.30
2019-01-05T01:57:52.485Z,79.50
2019-01-05T02:00:25.599Z,79.40
2019-01-05T02:02:59.225Z,79.40
2019-01-05T02:05:46.488Z,79.30
2019-01-05T02:08:18.469Z,79.60
2019-01-05T02:10:51.065Z,80.00
2019-01-05T02:13:33.645Z,80.00
2019-01-05T02:16:06.840Z,80.40
2019-01-05T02:18:58.397Z,80.30
2019-01-05T02:21:52.658Z,80.30
2019-01-05T02:24:41.960Z,80.40
2019-01-05T02:27:40.225Z,80.60
2019-01-05T02:30:44.408Z,81.60
2019-01-05T02:33:41.405Z,80.50
2019-01-05T02:36:20.369Z,80.10
2019-01-05T02:39:02.487Z,79.90
2019-01-05T02:41:53.516Z,80.10
2019-01-05T02:44:29.346Z,80.30
2019-01-05T02:47:32.561Z,80.20
2019-01-05T02:50:14.468Z,80.20
2019-01-05T02:53:17.813Z,80.60
2019-01-05T02:55:59.629Z,80.70
2019-01-05T02:58:59.843Z,81.00
2019-01-05T03:01:56.194Z,80.80
2019-01-05T03:04:53.786Z,80.80
2019-01-05T03:07:55.517Z,80.80
2019-01-05T03:10:53.774Z,80.80
2019-01-05T03:13:39.187Z,80.70
2019-01-05T03:16:24.146Z,80.70
2019-01-05T03:19:22.905Z,80.90
2019-01-05T03:22:29.456Z,81.10
2019-01-05T03:25:22.196Z,81.60
2019-01-05T03:28:10.328Z,81.50
2019-01-05T03:31:06.975Z,81.60
2019-01-05T03:33:59.299Z,81.60
2019-01-05T03:36:56.623Z,81.80
2019-01-05T03:40:13.515Z,81.90
2019-01-05T03:43:13.272Z,81.50
2019-01-05T03:46:20.660Z,81.80
2019-01-05T03:49:08.744Z,81.80
2019-01-05T03:52:13.446Z,81.60
2019-01-05T03:55:11.992Z,81.20
2019-01-05T03:58:05.914Z,80.50
2019-01-05T04:01:13.649Z,80.20
2019-01-05T04:04:12.375Z,80.40
2019-01-05T04:07:34.364Z,80.20
2019-01-05T04:10:53.033Z,80.40
2019-01-05T04:13:48.499Z,80.40
2019-01-05T04:16:50.155Z,80.80
2019-01-05T04:19:57.883Z,80.80
2019-01-05T04:22:50.615Z,81.10
2019-01-05T04:25:53.799Z,81.30
2019-01-05T04:28:44.726Z,81.20
2019-01-05T04:31:37.006Z,81.10
2019-01-05T04:34:43.981Z,81.30
2019-01-05T04:37:37.488Z,81.60
2019-01-05T04:40:37.684Z,82.00
2019-01-05T04:43:39.155Z,82.20
2019-01-05T04:46:21.007Z,82.00
2019-01-05T04:49:16.822Z,81.90
2019-01-05T04:52:18.781Z,81.70
2019-01-05T04:55:08.394Z,81.70
2019-01-05T04:58:16.373Z,81.60
2019-01-05T05:01:28.693Z,82.70
2019-01-05T05:04:18.076Z,82.10
2019-01-05T05:07:09.184Z,82.40
2019-01-05T05:10:18.873Z,82.80
2019-01-05T05:13:27.965Z,82.70
2019-01-05T05:16:26.537Z,83.10
2019-01-05T05:19:14.352Z,82.50
2019-01-05T05:22:02.712Z,82.50
2019-01-05T05:24:44.643Z,82.80
2019-01-05T05:27:34.377Z,82.90
2019-01-05T05:30:28.061Z,82.80
2019-01-05T05:33:24.065Z,82.90
2019-01-05T05:36:32.281Z,83.10
2019-01-05T05:39:37.097Z,83.20
2019-01-05T05:42:33.028Z,83.10
2019-01-05T05:45:14.987Z,83.20
2019-01-05T05:48:03.226Z,83.40
2019-01-05T05:50:45.097Z,83.10
2019-01-05T05:53:23.985Z,82.70
2019-01-05T05:56:42.329Z,82.60
2019-01-05T05:59:33.503Z,82.60
2019-01-05T06:02:15.085Z,82.60
2019-01-05T06:05:14.037Z,82.70
2019-01-05T06:08:02.035Z,82.60
2019-01-05T06:11:06.857Z,82.80
2019-01-05T06:14:02.490Z,83.00
2019-01-05T06:16:44.241Z,83.00
2019-01-05T06:19:37.955Z,83.10
2019-01-05T06:22:19.913Z,83.40
2019-01-05T06:25:21.914Z,83.50
2019-01-05T06:28:19.314Z,83.30
2019-01-05T06:31:01.501Z,83.40
2019-01-05T06:33:43.334Z,83.40
2019-01-05T06:36:45.115Z,83.20
2019-01-05T06:39:33.190Z,83.00
2019-01-05T06:42:34.822Z,83.10
2019-01-05T06:45:30.177Z,83.10
2019-01-05T06:48:36.703Z,82.90
2019-01-05T06:51:41.851Z,83.00
2019-01-05T06:54:29.856Z,82.90
2019-01-05T06:57:08.984Z,83.10
2019-01-05T06:59:57.076Z,83.10
2019-01-05T07:03:09.301Z,83.40
2019-01-05T07:06:07.246Z,83.70
2019-01-05T07:09:13.786Z,83.70
2019-01-05T07:11:58.465Z,83.70
2019-01-05T07:14:43.641Z,83.80
2019-01-05T07:17:28.866Z,84.20
2019-01-05T07:20:38.156Z,84.10
2019-01-05T07:23:54.806Z,84.40
2019-01-05T07:27:04.384Z,84.30
2019-01-05T07:30:14.517Z,84.20
2019-01-05T07:33:14.991Z,84.50
2019-01-05T07:36:25.852Z,84.40
2019-01-05T07:39:30.766Z,84.20
2019-01-05T07:42:32.564Z,83.80
2019-01-05T07:45:34.706Z,83.70
2019-01-05T07:48:41.170Z,83.70
2019-01-05T07:51:47.637Z,83.40
2019-01-05T07:54:57.413Z,83.40
2019-01-05T07:57:53.530Z,83.60
2019-01-05T08:00:43.053Z,83.50
2019-01-05T08:03:48.992Z,83.60
2019-01-05T08:06:50.924Z,83.80
2019-01-05T08:09:39.330Z,83.70
2019-01-05T08:12:36.105Z,83.50
2019-01-05T08:15:34.245Z,83.30
2019-01-05T08:18:35.768Z,83.60
2019-01-05T08:21:28.527Z,84.00
2019-01-05T08:24:34.924Z,84.30
2019-01-05T08:27:46.124Z,84.40
2019-01-05T08:30:40.374Z,84.10
2019-01-05T08:33:22.217Z,84.20
2019-01-05T08:36:21.862Z,84.10
2019-01-05T08:39:25.073Z,84.10
2019-01-05T08:42:22.268Z,84.30
2019-01-05T08:45:46.520Z,84.10
2019-01-05T08:48:41.989Z,84.30
2019-01-05T08:51:29.903Z,84.50
2019-01-05T08:54:46.943Z,84.30
2019-01-05T08:57:56.084Z,84.30
2019-01-05T09:01:10.051Z,84.10
2019-01-05T09:04:20.774Z,84.00
2019-01-05T09:07:13.392Z,84.50
2019-01-05T09:10:19.653Z,84.30
2019-01-05T09:13:43.689Z,85.10
2019-01-05T09:16:44.224Z,84.80
2019-01-05T09:19:25.988Z,84.80
2019-01-05T09:22:47.119Z,84.90
2019-01-05T09:25:20.256Z,85.10
2019-01-05T09:28:01.892Z,85.30
2019-01-05T09:31:06.747Z,85.50
2019-01-05T09:34:13.232Z,85.80
2019-01-05T09:37:19.589Z,86.10
2019-01-05T09:40:25.843Z,86.40
2019-01-05T09:43:30.819Z,86.20
2019-01-05T09:46:55.597Z,87.10
2019-01-05T09:50:01.694Z,86.20
2019-01-05T09:52:54.245Z,86.20
2019-01-05T09:55:39.001Z,86.20
2019-01-05T09:58:17.551Z,86.60
2019-01-05T10:01:11.057Z,86.50
2019-01-05T10:04:12.531Z,86.70
2019-01-05T10:07:17.489Z,86.70
2019-01-05T10:09:56.730Z,86.90
2019-01-05T10:12:38.726Z,87.30
2019-01-05T10:15:38.714Z,87.50
2019-01-05T10:18:36.117Z,87.70
2019-01-05T10:22:00.509Z,87.60
2019-01-05T10:24:56.282Z,87.50
2019-01-05T10:27:38.682Z,87.40
2019-01-05T10:30:29.904Z,87.40
2019-01-05T10:33:32.801Z,87.40
2019-01-05T10:36:41.887Z,87.70
2019-01-05T10:39:38.889Z,87.40
2019-01-05T10:42:44.672Z,87.70
2019-01-05T10:45:35.962Z,87.60
2019-01-05T10:48:31.789Z,88.00
2019-01-05T10:51:13.631Z,87.80
2019-01-05T10:53:49.756Z,88.00
2019-01-05T10:56:51.240Z,88.00
2019-01-05T10:59:54.721Z,88.00
2019-01-05T11:02:39.558Z,88.00
2019-01-05T11:05:27.725Z,88.00
2019-01-05T11:08:28.189Z,88.30
2019-01-05T11:11:40.792Z,88.40
2019-01-05T11:14:48.897Z,88.60
2019-01-05T11:17:51.850Z,88.60
2019-01-05T11:20:52.056Z,88.50
2019-01-05T11:24:00.933Z,88.40
2019-01-05T11:26:55.785Z,88.30
2019-01-05T11:29:50.321Z,88.30
2019-01-05T11:32:45.576Z,88.40
2019-01-05T11:35:21.523Z,88.70
2019-01-05T11:38:20.069Z,88.60
2019-01-05T11:41:24.905Z,88.70
2019-01-05T11:44:30.955Z,88.70
2019-01-05T11:47:54.140Z,88.70
2019-01-05T11:51:10.540Z,88.50
2019-01-05T11:53:55.258Z,88.30
2019-01-05T11:56:53.422Z,88.70
2019-01-05T11:59:51.765Z,88.30
2019-01-05T12:02:30.952Z,88.40
2019-01-05T12:05:18.683Z,88.20
2019-01-05T12:08:06.932Z,88.60
2019-01-05T12:11:01.315Z,88.20
2019-01-05T12:14:03.453Z,88.20
2019-01-05T12:16:57.296Z,88.50
2019-01-05T12:19:54.074Z,88.60
2019-01-05T12:22:38.962Z,89.00
2019-01-05T12:25:33.980Z,88.70
2019-01-05T12:28:46.326Z,88.70
2019-01-05T12:31:46.766Z,89.20
2019-01-05T12:34:31.695Z,89.40
2019-01-05T12:37:52.029Z,89.30
2019-01-05T12:40:47.627Z,90.00
2019-01-05T12:43:54.250Z,89.60
2019-01-05T12:46:48.422Z,89.70
2019-01-05T12:49:55.038Z,89.40
2019-01-05T12:52:55.233Z,89.80
2019-01-05T12:55:46.889Z,90.10
2019-01-05T12:58:42.566Z,90.00
2019-01-05T13:02:05.425Z,89.80
2019-01-05T13:05:01.282Z,90.10
2019-01-05T13:08:01.176Z,90.00
2019-01-05T13:10:58.022Z,90.10
2019-01-05T13:13:50.556Z,90.10
2019-01-05T13:16:35.630Z,90.10
2019-01-05T13:19:20.538Z,90.00
2019-01-05T13:22:27.060Z,90.10
2019-01-05T13:25:24.134Z,90.10
2019-01-05T13:28:27.581Z,89.90
2019-01-05T13:31:21.510Z,90.00
2019-01-05T13:34:14.314Z,90.00
2019-01-05T13:37:10.258Z,90.10
2019-01-05T13:40:03.989Z,90.40
2019-01-05T13:42:58.287Z,90.10
2019-01-05T13:45:57.098Z,90.10
2019-01-05T13:49:06.865Z,90.20
2019-01-05T13:52:08.504Z,90.00
2019-01-05T13:54:47.023Z,90.10
2019-01-05T13:57:17.127Z,90.20
2019-01-05T13:59:52.721Z,90.20
2019-01-05T14:02:37.876Z,90.40
2019-01-05T14:05:17.381Z,90.30
2019-01-05T14:07:56.438Z,90.30
2019-01-05T14:10:43.004Z,90.20
2019-01-05T14:13:24.914Z,90.20
2019-01-05T14:15:57.715Z,90.20
2019-01-05T14:18:39.852Z,90.20
2019-01-05T14:21:18.938Z,90.40
2019-01-05T14:24:05.346Z,90.40
2019-01-05T14:26:51.739Z,90.40
2019-01-05T14:29:21.830Z,90.30
2019-01-05T14:31:57.984Z,90.30
2019-01-05T14:34:33.667Z,90.30
2019-01-05T14:37:20.403Z,90.20
2019-01-05T14:39:56.686Z,90.30
2019-01-05T14:42:36.105Z,90.30
2019-01-05T14:45:23.712Z,90.30
2019-01-05T14:47:59.714Z,90.20
2019-01-05T14:50:31.249Z,90.10
2019-01-05T14:53:17.736Z,90.10
2019-01-05T14:55:50.534Z,90.20
2019-01-05T14:58:38.918Z,90.00
2019-01-05T15:01:11.715Z,90.00
2019-01-05T15:03:41.807Z,90.00
2019-01-05T15:06:11.901Z,90.00
2019-01-05T15:08:56.865Z,90.40
2019-01-05T15:11:27.094Z,99.90
2019-01-05T15:14:13.453Z,99.90
2019-01-05T15:16:46.214Z,99.90
2019-01-05T15:19:31.332Z,96.40
2019-01-05T15:22:19.190Z,93.10
2019-01-05T15:24:52.165Z,90.20
2019-01-05T15:27:37.658Z,84.30
2019-01-05T15:30:20.130Z,81.90
2019-01-05T15:33:06.762Z,80.60
2019-01-05T15:35:39.805Z,79.90
2019-01-05T15:38:26.280Z,77.10
2019-01-05T15:40:56.377Z,75.40
2019-01-05T15:43:32.350Z,75.80
2019-01-05T15:46:18.827Z,75.30
2019-01-05T15:49:01.058Z,74.70
2019-01-05T15:51:37.078Z,74.20
2019-01-05T15:54:07.271Z,72.90
2019-01-05T15:56:53.655Z,71.10
2019-01-05T15:59:26.503Z,71.00
2019-01-05T16:02:13.351Z,72.00
2019-01-05T16:04:49.502Z,74.60
2019-01-05T16:07:38.538Z,75.50
2019-01-05T16:10:25.418Z,77.30
2019-01-05T16:12:55.543Z,78.80
2019-01-05T16:15:25.688Z,80.00
2019-01-05T16:18:10.939Z,80.80
2019-01-05T16:20:46.861Z,81.60
2019-01-05T16:23:19.888Z,82.20
2019-01-05T16:26:08.596Z,83.30
2019-01-05T16:28:48.008Z,83.90
2019-01-05T16:31:18.156Z,84.70
2019-01-05T16:33:48.298Z,85.20
2019-01-05T16:36:24.322Z,85.60
2019-01-05T16:38:55.553Z,86.20
2019-01-05T16:41:42.104Z,86.40
2019-01-05T16:44:28.369Z,87.00
2019-01-05T16:47:16.355Z,87.30
2019-01-05T16:50:03.083Z,87.90
2019-01-05T16:52:45.498Z,88.40
2019-01-05T16:55:24.247Z,88.70
2019-01-05T16:57:54.338Z,89.00
2019-01-05T17:00:33.645Z,89.40
2019-01-05T17:03:03.752Z,89.90
2019-01-05T17:05:39.291Z,90.10
2019-01-05T17:08:15.183Z,90.30
2019-01-05T17:10:47.984Z,90.30
2019-01-05T17:13:34.459Z,90.20
2019-01-05T17:16:21.273Z,90.30
2019-01-05T17:18:53.898Z,90.40
2019-01-05T17:21:42.302Z,90.50
2019-01-05T17:24:27.394Z,90.70
2019-01-05T17:27:03.604Z,90.60
2019-01-05T17:29:39.763Z,90.70
2019-01-05T17:32:26.116Z,90.70
2019-01-05T17:35:08.264Z,90.70
2019-01-05T17:37:54.862Z,90.50
2019-01-05T17:40:24.940Z,90.60
2019-01-05T17:42:58.223Z,90.60
2019-01-05T17:45:44.707Z,90.50
2019-01-05T17:48:26.957Z,90.60
2019-01-05T17:50:57.110Z,90.50
2019-01-05T17:53:36.218Z,90.50
2019-01-05T17:56:09.230Z,90.60
2019-01-05T17:58:42.052Z,90.50
2019-01-05T18:01:28.191Z,90.50
2019-01-05T18:04:14.858Z,90.60
2019-01-05T18:06:53.905Z,90.80
2019-01-05T18:09:26.910Z,90.70
2019-01-05T18:11:57.285Z,90.70
2019-01-05T18:14:27.380Z,90.80
2019-01-05T18:17:09.496Z,90.70
2019-01-05T18:19:39.624Z,90.70
2019-01-05T18:22:15.683Z,90.90
2019-01-05T18:24:45.799Z,90.90
2019-01-05T18:27:18.634Z,91.00
2019-01-05T18:30:05.392Z,91.20
2019-01-05T18:32:50.973Z,91.20
2019-01-05T18:35:37.602Z,91.40
2019-01-05T18:38:22.704Z,91.60
2019-01-05T18:41:10.547Z,91.90
2019-01-05T18:43:40.786Z,91.90
2019-01-05T18:46:29.626Z,92.00
2019-01-05T18:49:08.725Z,92.20
2019-01-05T18:51:54.314Z,92.30
2019-01-05T18:54:30.425Z,92.60
2019-01-05T18:57:09.289Z,92.70
2019-01-05T18:59:45.298Z,92.50
2019-01-05T19:02:32.121Z,92.60
2019-01-05T19:05:05.256Z,92.60
2019-01-05T19:07:52.076Z,92.40
2019-01-05T19:10:22.195Z,92.90
2019-01-05T19:12:54.858Z,92.30
2019-01-05T19:15:42.291Z,92.10
2019-01-05T19:18:27.397Z,92.10
2019-01-05T19:21:13.604Z,91.90
2019-01-05T19:23:43.713Z,92.10
2019-01-05T19:26:16.611Z,92.00
2019-01-05T19:28:46.775Z,91.90
2019-01-05T19:31:33.262Z,92.00
2019-01-05T19:34:03.548Z,92.00
2019-01-05T19:36:49.790Z,91.90
2019-01-05T19:39:36.421Z,92.00
2019-01-05T19:42:12.379Z,91.80
2019-01-05T19:44:59.008Z,91.90
2019-01-05T19:47:37.854Z,92.00
2019-01-05T19:50:24.405Z,92.00
2019-01-05T19:53:03.315Z,91.90
2019-01-05T19:55:48.506Z,91.90
2019-01-05T19:58:28.194Z,91.70
2019-01-05T20:01:13.604Z,91.80
2019-01-05T20:03:43.698Z,91.80
2019-01-05T20:06:29.185Z,91.90
2019-01-05T20:09:02.445Z,91.90
2019-01-05T20:11:41.404Z,91.80
2019-01-05T20:14:23.970Z,91.80
2019-01-05T20:16:59.873Z,92.20
2019-01-05T20:19:32.689Z,91.80
2019-01-05T20:22:02.873Z,91.90
2019-01-05T20:24:41.957Z,91.90
2019-01-05T20:27:28.209Z,91.90
2019-01-05T20:30:10.371Z,91.70
2019-01-05T20:32:57.032Z,91.60
2019-01-05T20:35:27.197Z,91.50
2019-01-05T20:37:59.962Z,91.60
2019-01-05T20:40:30.086Z,91.60
2019-01-05T20:43:02.835Z,91.70
2019-01-05T20:45:51.205Z,91.50
2019-01-05T20:48:36.313Z,91.50
2019-01-05T20:51:12.708Z,91.30
2019-01-05T20:53:59.098Z,91.30
2019-01-05T20:56:41.001Z,91.20
2019-01-05T20:59:17.110Z,91.20
2019-01-05T21:01:56.281Z,91.10
2019-01-05T21:04:29.474Z,91.10
2019-01-05T21:06:59.616Z,91.30
2019-01-05T21:09:35.720Z,91.30
2019-01-05T21:12:22.014Z,91.80
2019-01-05T21:14:58.231Z,91.30
2019-01-05T21:17:46.601Z,91.30
2019-01-05T21:20:33.232Z,91.30
2019-01-05T21:23:21.803Z,91.10
2019-01-05T21:26:07.912Z,91.20
2019-01-05T21:28:38.386Z,91.20
2019-01-05T21:31:14.233Z,91.20
2019-01-05T21:34:00.906Z,91.10
2019-01-05T21:36:39.933Z,91.10
2019-01-05T21:39:13.157Z,91.10
2019-01-05T21:41:43.338Z,91.00
2019-01-05T21:44:16.516Z,91.00
2019-01-05T21:46:49.319Z,90.80
2019-01-05T21:49:34.551Z,90.90
2019-01-05T21:52:04.718Z,90.80
2019-01-05T21:54:34.805Z,90.60
2019-01-05T21:57:21.201Z,90.60
2019-01-05T21:59:54.132Z,90.50
2019-01-05T22:02:26.917Z,90.90
2019-01-05T22:05:05.929Z,90.60
2019-01-05T22:07:52.276Z,90.60
2019-01-05T22:10:25.290Z,90.50
2019-01-05T22:12:55.433Z,90.50
2019-01-05T22:15:25.544Z,90.70
2019-01-05T22:17:58.506Z,90.80
2019-01-05T22:20:28.650Z,90.80
2019-01-05T22:23:13.552Z,91.20
2019-01-05T22:25:43.759Z,90.90
2019-01-05T22:28:16.819Z,90.90
2019-01-05T22:30:47.041Z,91.30
2019-01-05T22:33:33.691Z,91.10
2019-01-05T22:36:21.705Z,91.10
2019-01-05T22:39:08.425Z,91.20
2019-01-05T22:41:54.594Z,91.20
2019-01-05T22:44:36.815Z,91.40
2019-01-05T22:47:10.838Z,91.40
2019-01-05T22:49:50.776Z,91.30
2019-01-05T22:52:26.621Z,91.20
2019-01-05T22:54:56.673Z,91.30
2019-01-05T22:57:33.039Z,91.30
2019-01-05T23:00:18.167Z,91.30
2019-01-05T23:03:04.710Z,91.40
2019-01-05T23:05:40.661Z,91.20
2019-01-05T23:08:10.737Z,91.30
2019-01-05T23:10:49.448Z,91.30
2019-01-05T23:13:36.300Z,91.40
2019-01-05T23:16:21.491Z,91.40
2019-01-05T23:19:08.005Z,91.30
2019-01-05T23:21:50.313Z,91.30
2019-01-05T23:24:29.625Z,91.30
2019-01-05T23:27:14.737Z,91.20
2019-01-05T23:29:53.735Z,91.10
2019-01-05T23:32:39.119Z,91.20
2019-01-05T23:35:09.218Z,91.00
2019-01-05T23:37:51.504Z,91.00
2019-01-05T23:40:30.581Z,90.90
2019-01-05T23:43:09.657Z,90.70
2019-01-05T23:45:39.726Z,90.80
2019-01-05T23:48:09.797Z,90.80
2019-01-05T23:50:45.873Z,91.10
2019-01-05T23:53:19.026Z,90.50
2019-01-05T23:55:58.318Z,90.60
2019-01-05T23:58:44.989Z,90.50
